createdAt,value
2018-09-08T16:02:18.318Z,1.10
2018-09-08T16:04:46.554Z,1.70
2018-09-08T16:07:14.534Z,1.80
2018-09-08T16:09:42.793Z,1.30
2018-09-08T16:12:10.989Z,1.30
2018-09-08T16:14:38.980Z,1.57
2018-09-08T16:17:07.369Z,1.13
2018-09-08T16:19:35.643Z,1.07
2018-09-08T16:22:03.605Z,1.63
2018-09-08T16:24:31.819Z,1.20
2018-09-08T16:26:59.999Z,1.40
2018-09-08T16:29:28.258Z,1.00
2018-09-08T16:31:56.476Z,1.33
2018-09-08T16:34:24.406Z,2.00
2018-09-08T16:36:52.615Z,2.10
2018-09-08T16:39:20.834Z,1.50
2018-09-08T16:41:49.021Z,1.40
2018-09-08T16:44:17.373Z,1.80
2018-09-08T16:46:45.234Z,1.30
2018-09-08T16:49:13.434Z,1.43
2018-09-08T16:51:41.645Z,1.67
2018-09-08T16:54:16.491Z,1.00
2018-09-08T16:56:44.754Z,1.40
2018-09-08T16:59:13.037Z,0.90
2018-09-08T17:01:41.342Z,1.20
2018-09-08T17:04:09.543Z,1.30
2018-09-08T17:06:37.796Z,1.43
2018-09-08T17:09:06.636Z,1.30
2018-09-08T17:11:34.916Z,1.70
2018-09-08T17:14:03.201Z,1.47
2018-09-08T17:16:31.469Z,1.33
2018-09-08T17:18:59.689Z,1.67
2018-09-08T17:21:27.882Z,1.20
2018-09-08T17:23:55.851Z,4.67
2018-09-08T17:26:23.870Z,5.23
2018-09-08T17:28:51.811Z,2.00
2018-09-08T17:31:20.105Z,1.67
2018-09-08T17:33:48.329Z,1.17
2018-09-08T17:36:16.534Z,2.30
2018-09-08T17:38:44.808Z,1.50
2018-09-08T17:41:12.977Z,2.70
2018-09-08T17:43:41.193Z,4.73
2018-09-08T17:46:09.161Z,2.83
2018-09-08T17:48:37.340Z,1.87
2018-09-08T17:51:05.301Z,1.90
2018-09-08T17:53:33.501Z,1.83
2018-09-08T17:56:01.709Z,1.50
2018-09-08T17:58:30.032Z,2.13
2018-09-08T18:00:58.192Z,2.00
2018-09-08T18:06:01.062Z,1.20
2018-09-08T18:08:29.018Z,1.57
2018-09-08T18:10:57.217Z,1.70
2018-09-08T18:13:25.873Z,2.60
2018-09-08T18:15:54.237Z,2.03
2018-09-08T18:18:22.583Z,2.20
2018-09-08T18:20:51.010Z,4.00
2018-09-08T18:23:19.228Z,7.90
2018-09-08T18:25:47.172Z,6.77
2018-09-08T18:28:15.378Z,10.73
2018-09-08T18:30:43.631Z,15.30
2018-09-08T18:33:11.847Z,9.43
2018-09-08T18:35:39.864Z,5.50
2018-09-08T18:38:08.077Z,3.50
2018-09-08T18:40:36.301Z,3.40
2018-09-08T18:43:04.532Z,2.10
2018-09-08T18:45:32.737Z,3.00
2018-09-08T18:48:00.951Z,3.60
2018-09-08T18:50:28.933Z,2.40
2018-09-08T18:52:56.951Z,2.67
2018-09-08T18:55:25.163Z,2.63
2018-09-08T18:57:53.352Z,3.17
2018-09-08T19:00:21.540Z,1.87
2018-09-08T19:02:49.765Z,1.50
2018-09-08T19:05:17.696Z,1.77
2018-09-08T19:07:45.930Z,1.57
2018-09-08T19:10:14.125Z,1.50
2018-09-08T19:12:42.353Z,1.73
2018-09-08T19:15:16.851Z,2.13
2018-09-08T19:17:44.856Z,2.13
2018-09-08T19:20:18.592Z,2.17
2018-09-08T19:22:47.186Z,3.13
2018-09-08T19:25:15.458Z,7.90
2018-09-08T19:27:43.999Z,5.43
2018-09-08T19:30:11.973Z,6.27
2018-09-08T19:32:40.402Z,6.10
2018-09-08T19:35:13.797Z,4.87
2018-09-08T19:37:41.763Z,4.33
2018-09-08T19:40:15.266Z,4.13
2018-09-08T19:42:43.474Z,2.37
2018-09-08T19:45:11.681Z,3.60
2018-09-08T19:47:45.164Z,3.60
2018-09-08T19:50:13.129Z,3.43
2018-09-08T19:52:46.977Z,3.20
2018-09-08T19:55:15.141Z,2.70
2018-09-08T19:57:48.545Z,2.13
2018-09-08T20:00:17.137Z,1.90
2018-09-08T20:02:45.305Z,2.50
2018-09-08T20:05:13.232Z,2.00
2018-09-08T20:07:41.428Z,1.70
2018-09-08T20:10:09.609Z,1.87
2018-09-08T20:12:37.816Z,2.83
2018-09-08T20:15:06.268Z,2.20
2018-09-08T20:17:34.371Z,2.07
2018-09-08T20:20:02.361Z,2.73
2018-09-08T20:22:30.544Z,2.60
2018-09-08T20:24:58.503Z,2.63
2018-09-08T20:27:26.700Z,2.57
2018-09-08T20:29:54.642Z,2.70
2018-09-08T20:32:22.906Z,2.90
2018-09-08T20:34:52.218Z,2.90
2018-09-08T20:37:20.454Z,2.80
2018-09-08T20:39:48.718Z,3.00
2018-09-08T20:42:16.655Z,2.70
2018-09-08T20:44:44.870Z,3.60
2018-09-08T20:47:13.053Z,4.07
2018-09-08T20:49:41.085Z,3.23
2018-09-08T20:52:09.341Z,2.53
2018-09-08T20:54:37.527Z,2.50
2018-09-08T20:57:05.441Z,2.80
2018-09-08T20:59:34.128Z,2.80
2018-09-08T21:02:02.819Z,3.30
2018-09-08T21:04:30.779Z,2.90
2018-09-08T21:06:58.963Z,3.20
2018-09-08T21:09:27.145Z,4.40
2018-09-08T21:11:55.061Z,3.33
2018-09-08T21:14:23.006Z,2.73
2018-09-08T21:16:51.630Z,3.50
2018-09-08T21:19:19.937Z,3.70
2018-09-08T21:21:47.886Z,4.00
2018-09-08T21:24:16.191Z,3.60
2018-09-08T21:26:44.133Z,5.03
2018-09-08T21:29:12.317Z,4.83
2018-09-08T21:31:40.300Z,3.90
2018-09-08T21:34:08.589Z,4.90
2018-09-08T21:36:36.759Z,3.53
2018-09-08T21:39:06.577Z,3.00
2018-09-08T21:41:34.833Z,3.33
2018-09-08T21:44:03.067Z,3.07
2018-09-08T21:46:31.236Z,3.20
2018-09-08T21:49:00.260Z,3.70
2018-09-08T21:51:28.481Z,1.83
2018-09-08T21:53:56.691Z,1.87
2018-09-08T21:56:26.271Z,2.17
2018-09-08T21:58:54.176Z,2.10
